sensor_id;sensor_type;location;lat;lon;timestamp;P1;durP1;ratioP1;P2;durP2;ratioP2
55214;SDS011;41084;45.908;6.102;2023-09-19T00:00:30;22.48;;;8.93;;
55214;SDS011;41084;45.908;6.102;2023-09-19T00:02:57;21.65;;;8.35;;
55214;SDS011;41084;45.908;6.102;2023-09-19T00:05:29;18.40;;;8.60;;
55214;SDS011;41084;45.908;6.102;2023-09-19T00:07:59;17.75;;;8.07;;
55214;SDS011;41084;45.908;6.102;2023-09-19T00:10:26;18.45;;;8.25;;
55214;SDS011;41084;45.908;6.102;2023-09-19T00:12:56;16.48;;;7.50;;
55214;SDS011;41084;45.908;6.102;2023-09-19T00:15:23;17.60;;;7.22;;
55214;SDS011;41084;45.908;6.102;2023-09-19T00:17:49;18.00;;;8.15;;
55214;SDS011;41084;45.908;6.102;2023-09-19T00:20:17;18.38;;;8.15;;
55214;SDS011;41084;45.908;6.102;2023-09-19T00:22:43;16.70;;;7.68;;
55214;SDS011;41084;45.908;6.102;2023-09-19T00:25:14;18.90;;;7.93;;
55214;SDS011;41084;45.908;6.102;2023-09-19T00:27:43;18.02;;;7.68;;
55214;SDS011;41084;45.908;6.102;2023-09-19T00:30:10;16.65;;;6.47;;
55214;SDS011;41084;45.908;6.102;2023-09-19T00:32:41;19.13;;;7.15;;
55214;SDS011;41084;45.908;6.102;2023-09-19T00:35:07;15.73;;;6.60;;
55214;SDS011;41084;45.908;6.102;2023-09-19T00:37:34;18.48;;;7.10;;
55214;SDS011;41084;45.908;6.102;2023-09-19T00:40:00;18.25;;;8.27;;
55214;SDS011;41084;45.908;6.102;2023-09-19T00:42:29;17.70;;;8.18;;
55214;SDS011;41084;45.908;6.102;2023-09-19T00:44:55;17.00;;;7.72;;
55214;SDS011;41084;45.908;6.102;2023-09-19T00:47:20;15.18;;;7.90;;
55214;SDS011;41084;45.908;6.102;2023-09-19T00:49:45;17.63;;;7.38;;
55214;SDS011;41084;45.908;6.102;2023-09-19T00:52:14;15.75;;;7.65;;
55214;SDS011;41084;45.908;6.102;2023-09-19T00:54:40;14.93;;;7.30;;
55214;SDS011;41084;45.908;6.102;2023-09-19T00:57:06;18.70;;;7.75;;
55214;SDS011;41084;45.908;6.102;2023-09-19T00:59:33;16.75;;;7.40;;
55214;SDS011;41084;45.908;6.102;2023-09-19T01:02:00;16.35;;;7.32;;
55214;SDS011;41084;45.908;6.102;2023-09-19T01:04:28;16.92;;;7.40;;
55214;SDS011;41084;45.908;6.102;2023-09-19T01:06:53;14.80;;;7.63;;
55214;SDS011;41084;45.908;6.102;2023-09-19T01:09:19;15.50;;;6.75;;
55214;SDS011;41084;45.908;6.102;2023-09-19T01:11:46;13.88;;;7.15;;
55214;SDS011;41084;45.908;6.102;2023-09-19T01:17:43;14.57;;;6.67;;
55214;SDS011;41084;45.908;6.102;2023-09-19T01:25:33;11.57;;;4.67;;
55214;SDS011;41084;45.908;6.102;2023-09-19T01:30:55;9.68;;;3.92;;
55214;SDS011;41084;45.908;6.102;2023-09-19T01:33:23;7.82;;;3.83;;
55214;SDS011;41084;45.908;6.102;2023-09-19T01:35:49;10.63;;;3.70;;
55214;SDS011;41084;45.908;6.102;2023-09-19T01:38:15;9.05;;;3.83;;
55214;SDS011;41084;45.908;6.102;2023-09-19T01:40:42;8.40;;;4.15;;
55214;SDS011;41084;45.908;6.102;2023-09-19T01:43:12;9.45;;;4.20;;
55214;SDS011;41084;45.908;6.102;2023-09-19T01:46:07;6.97;;;3.95;;
55214;SDS011;41084;45.908;6.102;2023-09-19T01:48:41;11.23;;;4.22;;
55214;SDS011;41084;45.908;6.102;2023-09-19T01:51:16;9.15;;;4.47;;
55214;SDS011;41084;45.908;6.102;2023-09-19T01:53:51;12.07;;;4.65;;
55214;SDS011;41084;45.908;6.102;2023-09-19T01:59:22;8.35;;;3.85;;
55214;SDS011;41084;45.908;6.102;2023-09-19T02:01:52;9.88;;;4.28;;
55214;SDS011;41084;45.908;6.102;2023-09-19T02:04:19;9.38;;;4.00;;
55214;SDS011;41084;45.908;6.102;2023-09-19T02:06:45;8.55;;;3.60;;
55214;SDS011;41084;45.908;6.102;2023-09-19T02:09:12;8.40;;;4.00;;
55214;SDS011;41084;45.908;6.102;2023-09-19T02:11:39;9.80;;;3.75;;
55214;SDS011;41084;45.908;6.102;2023-09-19T02:14:05;12.40;;;4.20;;
55214;SDS011;41084;45.908;6.102;2023-09-19T02:16:33;6.47;;;3.53;;
55214;SDS011;41084;45.908;6.102;2023-09-19T02:18:59;13.10;;;4.10;;
55214;SDS011;41084;45.908;6.102;2023-09-19T02:21:25;7.05;;;3.53;;
55214;SDS011;41084;45.908;6.102;2023-09-19T02:23:54;9.60;;;4.13;;
55214;SDS011;41084;45.908;6.102;2023-09-19T02:26:20;10.07;;;4.70;;
55214;SDS011;41084;45.908;6.102;2023-09-19T02:28:45;9.23;;;4.95;;
55214;SDS011;41084;45.908;6.102;2023-09-19T02:31:11;9.65;;;5.00;;
55214;SDS011;41084;45.908;6.102;2023-09-19T02:33:36;11.70;;;5.07;;
55214;SDS011;41084;45.908;6.102;2023-09-19T02:36:02;9.18;;;4.63;;
55214;SDS011;41084;45.908;6.102;2023-09-19T02:38:28;8.80;;;4.45;;
55214;SDS011;41084;45.908;6.102;2023-09-19T02:40:54;12.45;;;5.07;;
55214;SDS011;41084;45.908;6.102;2023-09-19T02:43:22;7.70;;;4.40;;
55214;SDS011;41084;45.908;6.102;2023-09-19T02:45:49;10.50;;;4.72;;
55214;SDS011;41084;45.908;6.102;2023-09-19T02:48:15;8.02;;;4.57;;
55214;SDS011;41084;45.908;6.102;2023-09-19T02:50:41;8.57;;;4.63;;
55214;SDS011;41084;45.908;6.102;2023-09-19T02:53:07;9.48;;;4.78;;
55214;SDS011;41084;45.908;6.102;2023-09-19T02:55:32;10.10;;;4.63;;
55214;SDS011;41084;45.908;6.102;2023-09-19T02:57:57;7.93;;;4.85;;
55214;SDS011;41084;45.908;6.102;2023-09-19T03:00:23;11.02;;;4.60;;
55214;SDS011;41084;45.908;6.102;2023-09-19T03:02:49;8.75;;;4.32;;
55214;SDS011;41084;45.908;6.102;2023-09-19T03:05:15;8.65;;;5.03;;
55214;SDS011;41084;45.908;6.102;2023-09-19T03:07:41;9.63;;;4.40;;
55214;SDS011;41084;45.908;6.102;2023-09-19T03:10:08;8.90;;;4.75;;
55214;SDS011;41084;45.908;6.102;2023-09-19T03:12:34;8.93;;;4.57;;
55214;SDS011;41084;45.908;6.102;2023-09-19T03:15:00;7.78;;;4.53;;
55214;SDS011;41084;45.908;6.102;2023-09-19T03:17:25;9.43;;;4.18;;
55214;SDS011;41084;45.908;6.102;2023-09-19T03:19:51;11.20;;;4.07;;
55214;SDS011;41084;45.908;6.102;2023-09-19T03:22:16;9.98;;;5.03;;
55214;SDS011;41084;45.908;6.102;2023-09-19T03:24:42;13.90;;;5.63;;
55214;SDS011;41084;45.908;6.102;2023-09-19T03:27:09;11.10;;;6.03;;
55214;SDS011;41084;45.908;6.102;2023-09-19T03:29:35;11.93;;;4.63;;
55214;SDS011;41084;45.908;6.102;2023-09-19T03:32:00;11.10;;;4.70;;
55214;SDS011;41084;45.908;6.102;2023-09-19T03:34:26;11.45;;;5.45;;
55214;SDS011;41084;45.908;6.102;2023-09-19T03:36:52;10.52;;;5.38;;
55214;SDS011;41084;45.908;6.102;2023-09-19T03:39:17;13.93;;;5.13;;
55214;SDS011;41084;45.908;6.102;2023-09-19T03:41:42;9.40;;;4.88;;
55214;SDS011;41084;45.908;6.102;2023-09-19T03:44:08;8.13;;;4.88;;
55214;SDS011;41084;45.908;6.102;2023-09-19T03:46:33;10.48;;;4.97;;
55214;SDS011;41084;45.908;6.102;2023-09-19T03:49:00;10.05;;;4.95;;
55214;SDS011;41084;45.908;6.102;2023-09-19T03:51:26;8.25;;;5.00;;
55214;SDS011;41084;45.908;6.102;2023-09-19T03:53:51;9.98;;;5.03;;
55214;SDS011;41084;45.908;6.102;2023-09-19T03:56:16;8.82;;;4.60;;
55214;SDS011;41084;45.908;6.102;2023-09-19T03:58:42;7.30;;;4.53;;
55214;SDS011;41084;45.908;6.102;2023-09-19T04:01:07;8.40;;;4.18;;
55214;SDS011;41084;45.908;6.102;2023-09-19T04:03:33;7.22;;;4.25;;
55214;SDS011;41084;45.908;6.102;2023-09-19T04:06:14;7.50;;;4.05;;
55214;SDS011;41084;45.908;6.102;2023-09-19T04:08:40;5.00;;;3.08;;
55214;SDS011;41084;45.908;6.102;2023-09-19T04:11:06;6.65;;;3.80;;
55214;SDS011;41084;45.908;6.102;2023-09-19T04:13:31;7.18;;;3.70;;
55214;SDS011;41084;45.908;6.102;2023-09-19T04:15:57;7.50;;;3.40;;
55214;SDS011;41084;45.908;6.102;2023-09-19T04:18:22;6.95;;;3.90;;
55214;SDS011;41084;45.908;6.102;2023-09-19T04:20:50;7.00;;;4.35;;
55214;SDS011;41084;45.908;6.102;2023-09-19T04:23:16;7.25;;;3.97;;
55214;SDS011;41084;45.908;6.102;2023-09-19T04:25:42;7.25;;;4.10;;
55214;SDS011;41084;45.908;6.102;2023-09-19T04:28:08;9.10;;;4.05;;
55214;SDS011;41084;45.908;6.102;2023-09-19T04:30:35;11.30;;;4.10;;
55214;SDS011;41084;45.908;6.102;2023-09-19T04:33:01;11.45;;;4.80;;
55214;SDS011;41084;45.908;6.102;2023-09-19T04:35:26;10.50;;;5.00;;
55214;SDS011;41084;45.908;6.102;2023-09-19T04:37:54;10.73;;;4.72;;
55214;SDS011;41084;45.908;6.102;2023-09-19T04:40:19;10.43;;;4.80;;
55214;SDS011;41084;45.908;6.102;2023-09-19T04:42:45;12.02;;;5.15;;
55214;SDS011;41084;45.908;6.102;2023-09-19T04:45:21;9.32;;;4.95;;
55214;SDS011;41084;45.908;6.102;2023-09-19T04:47:47;8.73;;;4.97;;
55214;SDS011;41084;45.908;6.102;2023-09-19T04:50:13;10.52;;;4.50;;
55214;SDS011;41084;45.908;6.102;2023-09-19T04:52:41;7.05;;;4.30;;
55214;SDS011;41084;45.908;6.102;2023-09-19T04:55:13;12.50;;;5.22;;
55214;SDS011;41084;45.908;6.102;2023-09-19T04:57:45;11.02;;;4.72;;
55214;SDS011;41084;45.908;6.102;2023-09-19T05:00:15;7.30;;;4.10;;
55214;SDS011;41084;45.908;6.102;2023-09-19T05:02:44;9.73;;;4.97;;
55214;SDS011;41084;45.908;6.102;2023-09-19T05:05:10;7.30;;;4.78;;
55214;SDS011;41084;45.908;6.102;2023-09-19T05:07:37;8.52;;;4.20;;
55214;SDS011;41084;45.908;6.102;2023-09-19T05:10:04;15.88;;;9.20;;
55214;SDS011;41084;45.908;6.102;2023-09-19T05:12:31;24.73;;;14.32;;
55214;SDS011;41084;45.908;6.102;2023-09-19T05:15:00;11.40;;;6.32;;
55214;SDS011;41084;45.908;6.102;2023-09-19T05:17:27;10.00;;;4.78;;
55214;SDS011;41084;45.908;6.102;2023-09-19T05:19:53;7.85;;;4.38;;
55214;SDS011;41084;45.908;6.102;2023-09-19T05:22:18;10.63;;;4.78;;
55214;SDS011;41084;45.908;6.102;2023-09-19T05:24:44;8.15;;;4.47;;
55214;SDS011;41084;45.908;6.102;2023-09-19T05:27:13;10.82;;;4.63;;
55214;SDS011;41084;45.908;6.102;2023-09-19T05:29:42;10.45;;;5.50;;
55214;SDS011;41084;45.908;6.102;2023-09-19T05:32:09;13.63;;;5.30;;
55214;SDS011;41084;45.908;6.102;2023-09-19T05:34:35;10.98;;;5.10;;
55214;SDS011;41084;45.908;6.102;2023-09-19T05:37:01;13.70;;;4.78;;
55214;SDS011;41084;45.908;6.102;2023-09-19T05:39:27;13.82;;;4.80;;
55214;SDS011;41084;45.908;6.102;2023-09-19T05:41:52;8.82;;;4.28;;
55214;SDS011;41084;45.908;6.102;2023-09-19T05:44:17;6.28;;;3.45;;
55214;SDS011;41084;45.908;6.102;2023-09-19T05:46:42;8.50;;;4.10;;
55214;SDS011;41084;45.908;6.102;2023-09-19T05:49:08;6.82;;;3.85;;
55214;SDS011;41084;45.908;6.102;2023-09-19T05:51:33;5.15;;;3.58;;
55214;SDS011;41084;45.908;6.102;2023-09-19T05:54:00;7.35;;;3.45;;
55214;SDS011;41084;45.908;6.102;2023-09-19T05:56:25;5.60;;;3.15;;
55214;SDS011;41084;45.908;6.102;2023-09-19T05:58:52;6.30;;;3.72;;
55214;SDS011;41084;45.908;6.102;2023-09-19T06:01:18;9.40;;;4.47;;
55214;SDS011;41084;45.908;6.102;2023-09-19T06:03:43;7.20;;;3.85;;
55214;SDS011;41084;45.908;6.102;2023-09-19T06:06:09;7.85;;;3.80;;
55214;SDS011;41084;45.908;6.102;2023-09-19T06:08:34;9.82;;;6.32;;
55214;SDS011;41084;45.908;6.102;2023-09-19T06:11:00;7.20;;;4.75;;
55214;SDS011;41084;45.908;6.102;2023-09-19T06:13:27;8.90;;;4.22;;
55214;SDS011;41084;45.908;6.102;2023-09-19T06:15:54;9.95;;;4.35;;
55214;SDS011;41084;45.908;6.102;2023-09-19T06:18:21;9.45;;;5.40;;
55214;SDS011;41084;45.908;6.102;2023-09-19T06:20:47;12.52;;;5.07;;
55214;SDS011;41084;45.908;6.102;2023-09-19T06:23:12;11.60;;;5.22;;
55214;SDS011;41084;45.908;6.102;2023-09-19T06:25:38;12.32;;;5.65;;
55214;SDS011;41084;45.908;6.102;2023-09-19T06:28:04;9.48;;;4.80;;
55214;SDS011;41084;45.908;6.102;2023-09-19T06:30:30;7.60;;;4.63;;
55214;SDS011;41084;45.908;6.102;2023-09-19T06:32:56;9.38;;;4.72;;
55214;SDS011;41084;45.908;6.102;2023-09-19T06:35:22;7.18;;;4.35;;
55214;SDS011;41084;45.908;6.102;2023-09-19T06:37:48;7.65;;;3.90;;
55214;SDS011;41084;45.908;6.102;2023-09-19T06:40:14;7.93;;;4.30;;
55214;SDS011;41084;45.908;6.102;2023-09-19T06:42:43;8.57;;;4.30;;
55214;SDS011;41084;45.908;6.102;2023-09-19T06:45:11;7.13;;;3.90;;
55214;SDS011;41084;45.908;6.102;2023-09-19T06:47:38;8.40;;;4.40;;
55214;SDS011;41084;45.908;6.102;2023-09-19T06:50:04;6.85;;;3.35;;
55214;SDS011;41084;45.908;6.102;2023-09-19T06:52:31;11.32;;;7.13;;
55214;SDS011;41084;45.908;6.102;2023-09-19T06:54:58;15.68;;;8.77;;
55214;SDS011;41084;45.908;6.102;2023-09-19T06:57:23;14.35;;;6.85;;
55214;SDS011;41084;45.908;6.102;2023-09-19T06:59:49;8.68;;;5.35;;
55214;SDS011;41084;45.908;6.102;2023-09-19T07:02:15;11.27;;;6.35;;
55214;SDS011;41084;45.908;6.102;2023-09-19T07:04:40;8.07;;;4.43;;
55214;SDS011;41084;45.908;6.102;2023-09-19T07:07:06;9.80;;;4.78;;
55214;SDS011;41084;45.908;6.102;2023-09-19T07:09:33;7.68;;;4.90;;
55214;SDS011;41084;45.908;6.102;2023-09-19T07:11:59;17.88;;;9.32;;
55214;SDS011;41084;45.908;6.102;2023-09-19T07:14:25;25.25;;;16.10;;
55214;SDS011;41084;45.908;6.102;2023-09-19T07:16:51;10.07;;;7.00;;
55214;SDS011;41084;45.908;6.102;2023-09-19T07:19:17;11.35;;;5.60;;
55214;SDS011;41084;45.908;6.102;2023-09-19T07:21:42;9.30;;;5.60;;
55214;SDS011;41084;45.908;6.102;2023-09-19T07:24:07;9.52;;;6.78;;
55214;SDS011;41084;45.908;6.102;2023-09-19T07:26:33;13.02;;;6.43;;
55214;SDS011;41084;45.908;6.102;2023-09-19T07:28:59;8.98;;;4.90;;
55214;SDS011;41084;45.908;6.102;2023-09-19T07:31:24;8.88;;;4.72;;
55214;SDS011;41084;45.908;6.102;2023-09-19T07:33:50;10.82;;;4.80;;
55214;SDS011;41084;45.908;6.102;2023-09-19T07:36:16;12.18;;;4.57;;
55214;SDS011;41084;45.908;6.102;2023-09-19T07:38:41;9.73;;;4.68;;
55214;SDS011;41084;45.908;6.102;2023-09-19T07:41:07;15.25;;;10.57;;
55214;SDS011;41084;45.908;6.102;2023-09-19T07:43:36;5.82;;;3.30;;
55214;SDS011;41084;45.908;6.102;2023-09-19T07:46:07;5.40;;;2.55;;
55214;SDS011;41084;45.908;6.102;2023-09-19T07:48:34;4.63;;;1.92;;
55214;SDS011;41084;45.908;6.102;2023-09-19T07:51:01;3.38;;;1.13;;
55214;SDS011;41084;45.908;6.102;2023-09-19T07:53:28;2.70;;;1.10;;
55214;SDS011;41084;45.908;6.102;2023-09-19T07:56:01;4.30;;;1.40;;
55214;SDS011;41084;45.908;6.102;2023-09-19T07:58:27;3.33;;;1.30;;
55214;SDS011;41084;45.908;6.102;2023-09-19T08:00:54;5.07;;;2.38;;
55214;SDS011;41084;45.908;6.102;2023-09-19T08:03:19;3.40;;;1.80;;
55214;SDS011;41084;45.908;6.102;2023-09-19T08:05:44;3.60;;;1.65;;
55214;SDS011;41084;45.908;6.102;2023-09-19T08:08:10;3.03;;;1.50;;
55214;SDS011;41084;45.908;6.102;2023-09-19T08:10:39;2.80;;;1.00;;
55214;SDS011;41084;45.908;6.102;2023-09-19T08:13:07;2.47;;;1.00;;
55214;SDS011;41084;45.908;6.102;2023-09-19T08:15:36;3.92;;;1.25;;
55214;SDS011;41084;45.908;6.102;2023-09-19T08:18:08;2.30;;;0.85;;
55214;SDS011;41084;45.908;6.102;2023-09-19T08:20:37;2.10;;;0.85;;
55214;SDS011;41084;45.908;6.102;2023-09-19T08:23:03;1.92;;;1.00;;
55214;SDS011;41084;45.908;6.102;2023-09-19T08:25:28;2.28;;;0.80;;
55214;SDS011;41084;45.908;6.102;2023-09-19T08:27:54;1.52;;;0.90;;
55214;SDS011;41084;45.908;6.102;2023-09-19T08:30:26;2.53;;;1.00;;
55214;SDS011;41084;45.908;6.102;2023-09-19T08:32:58;2.45;;;0.80;;
55214;SDS011;41084;45.908;6.102;2023-09-19T08:35:29;1.50;;;0.75;;
55214;SDS011;41084;45.908;6.102;2023-09-19T08:37:58;1.95;;;0.73;;
55214;SDS011;41084;45.908;6.102;2023-09-19T08:40:25;2.17;;;0.90;;
55214;SDS011;41084;45.908;6.102;2023-09-19T08:42:54;1.23;;;0.80;;
55214;SDS011;41084;45.908;6.102;2023-09-19T08:45:21;1.63;;;0.90;;
55214;SDS011;41084;45.908;6.102;2023-09-19T08:50:31;2.05;;;0.80;;
55214;SDS011;41084;45.908;6.102;2023-09-19T08:53:01;2.65;;;0.60;;
55214;SDS011;41084;45.908;6.102;2023-09-19T08:55:35;2.40;;;0.57;;
55214;SDS011;41084;45.908;6.102;2023-09-19T08:58:03;1.63;;;0.77;;
55214;SDS011;41084;45.908;6.102;2023-09-19T09:00:31;2.90;;;0.90;;
55214;SDS011;41084;45.908;6.102;2023-09-19T09:02:58;1.98;;;0.80;;
55214;SDS011;41084;45.908;6.102;2023-09-19T09:05:25;2.92;;;1.20;;
55214;SDS011;41084;45.908;6.102;2023-09-19T09:07:52;2.75;;;1.10;;
55214;SDS011;41084;45.908;6.102;2023-09-19T09:10:21;3.75;;;1.42;;
55214;SDS011;41084;45.908;6.102;2023-09-19T09:12:51;3.72;;;1.30;;
55214;SDS011;41084;45.908;6.102;2023-09-19T09:15:19;3.33;;;1.50;;
55214;SDS011;41084;45.908;6.102;2023-09-19T09:17:47;5.93;;;2.28;;
55214;SDS011;41084;45.908;6.102;2023-09-19T09:20:14;6.00;;;3.85;;
55214;SDS011;41084;45.908;6.102;2023-09-19T09:22:50;8.00;;;4.22;;
55214;SDS011;41084;45.908;6.102;2023-09-19T09:25:19;6.70;;;3.95;;
55214;SDS011;41084;45.908;6.102;2023-09-19T09:27:58;5.63;;;3.57;;
55214;SDS011;41084;45.908;6.102;2023-09-19T09:30:32;7.95;;;4.10;;
55214;SDS011;41084;45.908;6.102;2023-09-19T09:33:08;6.85;;;3.47;;
55214;SDS011;41084;45.908;6.102;2023-09-19T09:35:36;6.53;;;3.33;;
55214;SDS011;41084;45.908;6.102;2023-09-19T09:38:02;4.55;;;3.00;;
55214;SDS011;41084;45.908;6.102;2023-09-19T09:40:54;6.05;;;2.40;;
55214;SDS011;41084;45.908;6.102;2023-09-19T09:43:31;3.97;;;1.90;;
55214;SDS011;41084;45.908;6.102;2023-09-19T09:46:20;4.75;;;2.08;;
55214;SDS011;41084;45.908;6.102;2023-09-19T09:48:47;6.78;;;4.38;;
55214;SDS011;41084;45.908;6.102;2023-09-19T09:51:40;3.60;;;2.28;;
55214;SDS011;41084;45.908;6.102;2023-09-19T09:54:13;3.17;;;1.60;;
55214;SDS011;41084;45.908;6.102;2023-09-19T09:56:56;2.50;;;1.30;;
55214;SDS011;41084;45.908;6.102;2023-09-19T10:02:19;4.32;;;1.60;;
55214;SDS011;41084;45.908;6.102;2023-09-19T10:04:54;2.92;;;1.60;;
55214;SDS011;41084;45.908;6.102;2023-09-19T10:09:51;2.15;;;1.45;;
55214;SDS011;41084;45.908;6.102;2023-09-19T10:12:17;4.75;;;1.40;;
55214;SDS011;41084;45.908;6.102;2023-09-19T10:14:45;3.67;;;1.58;;
55214;SDS011;41084;45.908;6.102;2023-09-19T10:17:12;3.65;;;1.30;;
55214;SDS011;41084;45.908;6.102;2023-09-19T10:22:16;3.97;;;2.20;;
55214;SDS011;41084;45.908;6.102;2023-09-19T10:24:47;5.05;;;2.25;;
55214;SDS011;41084;45.908;6.102;2023-09-19T10:27:17;7.00;;;2.00;;
55214;SDS011;41084;45.908;6.102;2023-09-19T10:29:44;2.50;;;1.30;;
55214;SDS011;41084;45.908;6.102;2023-09-19T10:32:13;3.92;;;1.50;;
55214;SDS011;41084;45.908;6.102;2023-09-19T10:34:44;4.05;;;1.38;;
55214;SDS011;41084;45.908;6.102;2023-09-19T10:37:12;5.22;;;1.70;;
55214;SDS011;41084;45.908;6.102;2023-09-19T10:39:39;4.32;;;1.50;;
55214;SDS011;41084;45.908;6.102;2023-09-19T10:42:05;5.03;;;2.08;;
55214;SDS011;41084;45.908;6.102;2023-09-19T10:44:33;3.17;;;1.40;;
55214;SDS011;41084;45.908;6.102;2023-09-19T10:47:07;3.67;;;1.35;;
55214;SDS011;41084;45.908;6.102;2023-09-19T10:49:33;4.03;;;1.52;;
55214;SDS011;41084;45.908;6.102;2023-09-19T10:51:59;2.10;;;1.10;;
55214;SDS011;41084;45.908;6.102;2023-09-19T10:54:31;2.70;;;1.30;;
55214;SDS011;41084;45.908;6.102;2023-09-19T10:57:02;2.92;;;1.45;;
55214;SDS011;41084;45.908;6.102;2023-09-19T10:59:30;2.90;;;1.50;;
55214;SDS011;41084;45.908;6.102;2023-09-19T11:01:59;3.17;;;1.48;;
55214;SDS011;41084;45.908;6.102;2023-09-19T11:04:40;3.00;;;1.30;;
55214;SDS011;41084;45.908;6.102;2023-09-19T11:07:06;3.17;;;1.92;;
55214;SDS011;41084;45.908;6.102;2023-09-19T11:09:55;4.47;;;2.03;;
55214;SDS011;41084;45.908;6.102;2023-09-19T11:15:00;3.30;;;2.13;;
55214;SDS011;41084;45.908;6.102;2023-09-19T11:17:33;3.97;;;1.63;;
55214;SDS011;41084;45.908;6.102;2023-09-19T11:30:42;5.15;;;0.80;;
55214;SDS011;41084;45.908;6.102;2023-09-19T11:46:29;1.35;;;0.80;;
55214;SDS011;41084;45.908;6.102;2023-09-19T11:49:04;1.25;;;0.70;;
55214;SDS011;41084;45.908;6.102;2023-09-19T11:51:46;2.45;;;1.50;;
55214;SDS011;41084;45.908;6.102;2023-09-19T11:54:14;3.17;;;0.93;;
55214;SDS011;41084;45.908;6.102;2023-09-19T11:56:43;2.15;;;0.90;;
55214;SDS011;41084;45.908;6.102;2023-09-19T11:59:10;3.10;;;1.00;;
55214;SDS011;41084;45.908;6.102;2023-09-19T12:01:37;3.17;;;0.88;;
55214;SDS011;41084;45.908;6.102;2023-09-19T12:04:11;2.78;;;1.13;;
55214;SDS011;41084;45.908;6.102;2023-09-19T12:06:36;2.10;;;1.00;;
55214;SDS011;41084;45.908;6.102;2023-09-19T12:09:03;3.28;;;1.02;;
55214;SDS011;41084;45.908;6.102;2023-09-19T12:11:31;1.63;;;1.00;;
55214;SDS011;41084;45.908;6.102;2023-09-19T12:14:00;1.80;;;1.10;;
55214;SDS011;41084;45.908;6.102;2023-09-19T12:16:27;2.20;;;0.90;;
55214;SDS011;41084;45.908;6.102;2023-09-19T12:18:56;1.50;;;0.80;;
55214;SDS011;41084;45.908;6.102;2023-09-19T12:24:05;1.50;;;0.80;;
55214;SDS011;41084;45.908;6.102;2023-09-19T12:26:42;2.45;;;0.80;;
55214;SDS011;41084;45.908;6.102;2023-09-19T12:29:13;3.60;;;1.00;;
55214;SDS011;41084;45.908;6.102;2023-09-19T12:34:22;2.83;;;0.88;;
55214;SDS011;41084;45.908;6.102;2023-09-19T12:37:12;3.97;;;1.10;;
55214;SDS011;41084;45.908;6.102;2023-09-19T12:39:52;1.95;;;0.82;;
55214;SDS011;41084;45.908;6.102;2023-09-19T12:42:24;2.55;;;0.70;;
55214;SDS011;41084;45.908;6.102;2023-09-19T12:45:00;2.15;;;0.70;;
55214;SDS011;41084;45.908;6.102;2023-09-19T12:47:27;1.95;;;0.80;;
55214;SDS011;41084;45.908;6.102;2023-09-19T12:50:14;0.88;;;0.60;;
55214;SDS011;41084;45.908;6.102;2023-09-19T12:52:44;2.15;;;0.70;;
55214;SDS011;41084;45.908;6.102;2023-09-19T12:55:23;2.45;;;0.70;;
55214;SDS011;41084;45.908;6.102;2023-09-19T12:58:11;1.73;;;0.60;;
55214;SDS011;41084;45.908;6.102;2023-09-19T13:00:39;1.42;;;0.60;;
55214;SDS011;41084;45.908;6.102;2023-09-19T13:03:13;1.00;;;0.60;;
55214;SDS011;41084;45.908;6.102;2023-09-19T13:05:56;4.03;;;0.98;;
55214;SDS011;41084;45.908;6.102;2023-09-19T13:08:33;4.40;;;0.90;;
55214;SDS011;41084;45.908;6.102;2023-09-19T13:11:09;1.42;;;0.70;;
55214;SDS011;41084;45.908;6.102;2023-09-19T13:13:37;1.10;;;0.77;;
55214;SDS011;41084;45.908;6.102;2023-09-19T13:16:20;1.52;;;0.80;;
55214;SDS011;41084;45.908;6.102;2023-09-19T13:18:51;2.97;;;0.90;;
55214;SDS011;41084;45.908;6.102;2023-09-19T13:21:34;2.65;;;0.93;;
55214;SDS011;41084;45.908;6.102;2023-09-19T13:24:20;2.00;;;1.00;;
55214;SDS011;41084;45.908;6.102;2023-09-19T13:26:51;1.35;;;0.57;;
55214;SDS011;41084;45.908;6.102;2023-09-19T13:29:17;3.53;;;0.70;;
55214;SDS011;41084;45.908;6.102;2023-09-19T13:31:49;1.00;;;0.70;;
55214;SDS011;41084;45.908;6.102;2023-09-19T13:34:18;2.45;;;0.82;;
55214;SDS011;41084;45.908;6.102;2023-09-19T13:36:44;1.50;;;0.70;;
55214;SDS011;41084;45.908;6.102;2023-09-19T13:39:09;0.98;;;0.80;;
55214;SDS011;41084;45.908;6.102;2023-09-19T13:41:38;2.30;;;0.60;;
55214;SDS011;41084;45.908;6.102;2023-09-19T13:44:03;0.90;;;0.60;;
55214;SDS011;41084;45.908;6.102;2023-09-19T13:46:29;1.75;;;0.60;;
55214;SDS011;41084;45.908;6.102;2023-09-19T13:48:58;1.37;;;0.60;;
55214;SDS011;41084;45.908;6.102;2023-09-19T13:51:25;1.20;;;0.60;;
55214;SDS011;41084;45.908;6.102;2023-09-19T13:53:51;3.17;;;0.75;;
55214;SDS011;41084;45.908;6.102;2023-09-19T13:56:16;1.95;;;0.80;;
55214;SDS011;41084;45.908;6.102;2023-09-19T13:58:41;1.85;;;0.63;;
55214;SDS011;41084;45.908;6.102;2023-09-19T14:01:07;2.83;;;0.80;;
55214;SDS011;41084;45.908;6.102;2023-09-19T14:03:37;2.97;;;0.93;;
55214;SDS011;41084;45.908;6.102;2023-09-19T14:06:03;1.80;;;0.75;;
55214;SDS011;41084;45.908;6.102;2023-09-19T14:08:29;1.20;;;0.70;;
55214;SDS011;41084;45.908;6.102;2023-09-19T14:10:54;1.70;;;0.75;;
55214;SDS011;41084;45.908;6.102;2023-09-19T14:13:19;1.13;;;0.43;;
55214;SDS011;41084;45.908;6.102;2023-09-19T14:15:45;1.10;;;0.70;;
55214;SDS011;41084;45.908;6.102;2023-09-19T14:18:11;2.42;;;0.80;;
55214;SDS011;41084;45.908;6.102;2023-09-19T14:20:39;0.75;;;0.60;;
55214;SDS011;41084;45.908;6.102;2023-09-19T14:23:07;2.97;;;0.77;;
55214;SDS011;41084;45.908;6.102;2023-09-19T14:25:36;0.93;;;0.65;;
55214;SDS011;41084;45.908;6.102;2023-09-19T14:28:03;1.65;;;0.70;;
55214;SDS011;41084;45.908;6.102;2023-09-19T14:30:30;1.45;;;1.00;;
55214;SDS011;41084;45.908;6.102;2023-09-19T14:32:57;1.90;;;0.52;;
55214;SDS011;41084;45.908;6.102;2023-09-19T14:35:23;2.25;;;0.68;;
55214;SDS011;41084;45.908;6.102;2023-09-19T14:37:48;1.35;;;0.60;;
55214;SDS011;41084;45.908;6.102;2023-09-19T14:40:14;3.38;;;0.80;;
55214;SDS011;41084;45.908;6.102;2023-09-19T14:42:42;2.22;;;0.98;;
55214;SDS011;41084;45.908;6.102;2023-09-19T14:45:09;1.42;;;0.70;;
55214;SDS011;41084;45.908;6.102;2023-09-19T14:47:34;1.90;;;0.77;;
55214;SDS011;41084;45.908;6.102;2023-09-19T14:50:01;1.80;;;0.70;;
55214;SDS011;41084;45.908;6.102;2023-09-19T14:52:27;1.52;;;0.50;;
55214;SDS011;41084;45.908;6.102;2023-09-19T14:54:53;3.05;;;1.10;;
55214;SDS011;41084;45.908;6.102;2023-09-19T14:57:19;1.65;;;0.70;;
55214;SDS011;41084;45.908;6.102;2023-09-19T14:59:45;1.27;;;0.63;;
55214;SDS011;41084;45.908;6.102;2023-09-19T15:02:10;1.50;;;0.90;;
55214;SDS011;41084;45.908;6.102;2023-09-19T15:04:35;1.65;;;0.73;;
55214;SDS011;41084;45.908;6.102;2023-09-19T15:07:02;1.98;;;0.50;;
55214;SDS011;41084;45.908;6.102;2023-09-19T15:09:28;1.63;;;0.70;;
55214;SDS011;41084;45.908;6.102;2023-09-19T15:11:53;2.08;;;0.50;;
55214;SDS011;41084;45.908;6.102;2023-09-19T15:14:19;2.08;;;0.80;;
55214;SDS011;41084;45.908;6.102;2023-09-19T15:16:45;1.48;;;0.63;;
55214;SDS011;41084;45.908;6.102;2023-09-19T15:19:11;2.85;;;0.77;;
55214;SDS011;41084;45.908;6.102;2023-09-19T15:21:37;3.30;;;0.65;;
55214;SDS011;41084;45.908;6.102;2023-09-19T15:24:02;1.27;;;0.60;;
55214;SDS011;41084;45.908;6.102;2023-09-19T15:26:28;9.10;;;0.90;;
55214;SDS011;41084;45.908;6.102;2023-09-19T15:28:55;2.45;;;0.70;;
55214;SDS011;41084;45.908;6.102;2023-09-19T15:31:20;2.40;;;1.20;;
55214;SDS011;41084;45.908;6.102;2023-09-19T15:33:46;2.50;;;1.33;;
55214;SDS011;41084;45.908;6.102;2023-09-19T15:36:15;1.92;;;0.80;;
55214;SDS011;41084;45.908;6.102;2023-09-19T15:41:21;2.13;;;0.80;;
55214;SDS011;41084;45.908;6.102;2023-09-19T15:43:47;2.25;;;1.00;;
55214;SDS011;41084;45.908;6.102;2023-09-19T15:46:13;1.45;;;0.60;;
55214;SDS011;41084;45.908;6.102;2023-09-19T15:48:40;2.28;;;0.70;;
55214;SDS011;41084;45.908;6.102;2023-09-19T15:51:05;2.25;;;0.80;;